sensor_id;sensor_type;location;lat;lon;timestamp;P1;durP1;ratioP1;P2;durP2;ratioP2
14316;SDS011;7242;50.858;6.586;2023-12-04T00:00:11;16.37;;;11.27;;
14316;SDS011;7242;50.858;6.586;2023-12-04T00:03:15;15.70;;;11.00;;
14316;SDS011;7242;50.858;6.586;2023-12-04T00:06:16;14.87;;;11.20;;
14316;SDS011;7242;50.858;6.586;2023-12-04T00:09:17;14.57;;;10.17;;
14316;SDS011;7242;50.858;6.586;2023-12-04T00:12:18;14.57;;;10.73;;
14316;SDS011;7242;50.858;6.586;2023-12-04T00:15:20;14.27;;;10.50;;
14316;SDS011;7242;50.858;6.586;2023-12-04T00:18:24;14.53;;;10.53;;
14316;SDS011;7242;50.858;6.586;2023-12-04T00:21:25;15.80;;;10.73;;
14316;SDS011;7242;50.858;6.586;2023-12-04T00:24:26;15.80;;;10.33;;
14316;SDS011;7242;50.858;6.586;2023-12-04T00:27:27;15.03;;;9.97;;
14316;SDS011;7242;50.858;6.586;2023-12-04T00:30:28;13.67;;;9.97;;
14316;SDS011;7242;50.858;6.586;2023-12-04T00:33:29;14.33;;;10.13;;
14316;SDS011;7242;50.858;6.586;2023-12-04T00:36:30;14.97;;;10.67;;
14316;SDS011;7242;50.858;6.586;2023-12-04T00:39:32;14.00;;;10.50;;
14316;SDS011;7242;50.858;6.586;2023-12-04T00:42:33;13.83;;;10.40;;
14316;SDS011;7242;50.858;6.586;2023-12-04T00:45:34;13.43;;;10.07;;
14316;SDS011;7242;50.858;6.586;2023-12-04T00:48:35;13.60;;;9.23;;
14316;SDS011;7242;50.858;6.586;2023-12-04T00:51:39;13.37;;;9.43;;
14316;SDS011;7242;50.858;6.586;2023-12-04T00:54:39;14.20;;;9.73;;
14316;SDS011;7242;50.858;6.586;2023-12-04T00:57:41;13.03;;;9.23;;
14316;SDS011;7242;50.858;6.586;2023-12-04T01:00:42;12.50;;;9.23;;
14316;SDS011;7242;50.858;6.586;2023-12-04T01:03:43;14.43;;;10.17;;
14316;SDS011;7242;50.858;6.586;2023-12-04T01:06:44;13.23;;;9.40;;
14316;SDS011;7242;50.858;6.586;2023-12-04T01:09:46;12.03;;;8.93;;
14316;SDS011;7242;50.858;6.586;2023-12-04T01:12:47;12.83;;;9.40;;
14316;SDS011;7242;50.858;6.586;2023-12-04T01:15:48;13.23;;;8.57;;
14316;SDS011;7242;50.858;6.586;2023-12-04T01:18:51;12.83;;;9.63;;
14316;SDS011;7242;50.858;6.586;2023-12-04T01:21:52;12.70;;;9.33;;
14316;SDS011;7242;50.858;6.586;2023-12-04T01:24:53;11.43;;;8.77;;
14316;SDS011;7242;50.858;6.586;2023-12-04T01:27:55;13.17;;;9.20;;
14316;SDS011;7242;50.858;6.586;2023-12-04T01:30:56;13.57;;;9.33;;
14316;SDS011;7242;50.858;6.586;2023-12-04T01:33:57;11.70;;;9.30;;
14316;SDS011;7242;50.858;6.586;2023-12-04T01:36:58;14.53;;;9.87;;
14316;SDS011;7242;50.858;6.586;2023-12-04T01:39:59;13.30;;;9.53;;
14316;SDS011;7242;50.858;6.586;2023-12-04T01:43:01;12.60;;;9.57;;
14316;SDS011;7242;50.858;6.586;2023-12-04T01:46:02;11.67;;;8.63;;
14316;SDS011;7242;50.858;6.586;2023-12-04T01:49:04;12.03;;;9.00;;
14316;SDS011;7242;50.858;6.586;2023-12-04T01:52:05;12.97;;;9.43;;
14316;SDS011;7242;50.858;6.586;2023-12-04T01:55:07;12.47;;;9.20;;
14316;SDS011;7242;50.858;6.586;2023-12-04T01:58:10;13.47;;;9.20;;
14316;SDS011;7242;50.858;6.586;2023-12-04T02:01:11;11.77;;;9.23;;
14316;SDS011;7242;50.858;6.586;2023-12-04T02:04:13;12.33;;;8.77;;
14316;SDS011;7242;50.858;6.586;2023-12-04T02:07:14;11.37;;;8.50;;
14316;SDS011;7242;50.858;6.586;2023-12-04T02:10:15;11.37;;;8.63;;
14316;SDS011;7242;50.858;6.586;2023-12-04T02:13:16;10.90;;;8.57;;
14316;SDS011;7242;50.858;6.586;2023-12-04T02:16:17;11.30;;;8.93;;
14316;SDS011;7242;50.858;6.586;2023-12-04T02:19:19;11.50;;;8.90;;
14316;SDS011;7242;50.858;6.586;2023-12-04T02:22:20;11.00;;;8.60;;
14316;SDS011;7242;50.858;6.586;2023-12-04T02:25:22;11.07;;;8.37;;
14316;SDS011;7242;50.858;6.586;2023-12-04T02:28:23;10.10;;;8.10;;
14316;SDS011;7242;50.858;6.586;2023-12-04T02:31:25;10.97;;;8.33;;
14316;SDS011;7242;50.858;6.586;2023-12-04T02:34:29;10.03;;;7.70;;
14316;SDS011;7242;50.858;6.586;2023-12-04T02:37:34;9.97;;;7.53;;
14316;SDS011;7242;50.858;6.586;2023-12-04T02:40:35;9.70;;;7.73;;
14316;SDS011;7242;50.858;6.586;2023-12-04T02:43:36;9.63;;;7.47;;
14316;SDS011;7242;50.858;6.586;2023-12-04T02:46:37;9.77;;;7.63;;
14316;SDS011;7242;50.858;6.586;2023-12-04T02:49:38;10.80;;;8.00;;
14316;SDS011;7242;50.858;6.586;2023-12-04T02:52:40;10.73;;;8.40;;
14316;SDS011;7242;50.858;6.586;2023-12-04T02:55:40;10.10;;;8.00;;
14316;SDS011;7242;50.858;6.586;2023-12-04T02:58:42;12.30;;;9.00;;
14316;SDS011;7242;50.858;6.586;2023-12-04T03:01:42;11.90;;;8.67;;
14316;SDS011;7242;50.858;6.586;2023-12-04T03:04:43;12.37;;;8.90;;
14316;SDS011;7242;50.858;6.586;2023-12-04T03:07:45;11.17;;;8.90;;
14316;SDS011;7242;50.858;6.586;2023-12-04T03:10:46;12.17;;;8.80;;
14316;SDS011;7242;50.858;6.586;2023-12-04T03:13:47;11.57;;;8.83;;
14316;SDS011;7242;50.858;6.586;2023-12-04T03:16:49;11.70;;;8.77;;
14316;SDS011;7242;50.858;6.586;2023-12-04T03:19:50;13.33;;;9.10;;
14316;SDS011;7242;50.858;6.586;2023-12-04T03:22:51;11.63;;;8.67;;
14316;SDS011;7242;50.858;6.586;2023-12-04T03:25:52;11.30;;;8.60;;
14316;SDS011;7242;50.858;6.586;2023-12-04T03:28:54;13.47;;;9.10;;
14316;SDS011;7242;50.858;6.586;2023-12-04T03:31:55;11.70;;;9.23;;
14316;SDS011;7242;50.858;6.586;2023-12-04T03:34:56;13.30;;;8.60;;
14316;SDS011;7242;50.858;6.586;2023-12-04T03:37:57;11.53;;;8.87;;
14316;SDS011;7242;50.858;6.586;2023-12-04T03:40:58;11.73;;;8.73;;
14316;SDS011;7242;50.858;6.586;2023-12-04T03:43:59;10.77;;;8.40;;
14316;SDS011;7242;50.858;6.586;2023-12-04T03:47:00;12.17;;;8.80;;
14316;SDS011;7242;50.858;6.586;2023-12-04T03:50:01;10.67;;;8.33;;
14316;SDS011;7242;50.858;6.586;2023-12-04T03:53:02;10.83;;;7.77;;
14316;SDS011;7242;50.858;6.586;2023-12-04T03:56:04;11.17;;;8.63;;
14316;SDS011;7242;50.858;6.586;2023-12-04T03:59:05;12.03;;;8.23;;
14316;SDS011;7242;50.858;6.586;2023-12-04T04:02:06;10.80;;;8.17;;
14316;SDS011;7242;50.858;6.586;2023-12-04T04:05:07;11.67;;;8.70;;
14316;SDS011;7242;50.858;6.586;2023-12-04T04:08:08;10.30;;;8.30;;
14316;SDS011;7242;50.858;6.586;2023-12-04T04:11:09;11.93;;;8.80;;
14316;SDS011;7242;50.858;6.586;2023-12-04T04:14:12;11.40;;;8.73;;
14316;SDS011;7242;50.858;6.586;2023-12-04T04:17:13;11.83;;;9.13;;
14316;SDS011;7242;50.858;6.586;2023-12-04T04:20:14;12.83;;;9.17;;
14316;SDS011;7242;50.858;6.586;2023-12-04T04:23:15;12.57;;;8.93;;
14316;SDS011;7242;50.858;6.586;2023-12-04T04:26:17;11.77;;;8.97;;
14316;SDS011;7242;50.858;6.586;2023-12-04T04:29:18;11.57;;;9.13;;
14316;SDS011;7242;50.858;6.586;2023-12-04T04:32:19;12.43;;;8.73;;
14316;SDS011;7242;50.858;6.586;2023-12-04T04:35:20;12.83;;;9.03;;
14316;SDS011;7242;50.858;6.586;2023-12-04T04:38:21;14.83;;;9.37;;
14316;SDS011;7242;50.858;6.586;2023-12-04T04:41:22;12.07;;;8.83;;
14316;SDS011;7242;50.858;6.586;2023-12-04T04:44:24;11.00;;;8.83;;
14316;SDS011;7242;50.858;6.586;2023-12-04T04:47:25;11.50;;;9.30;;
14316;SDS011;7242;50.858;6.586;2023-12-04T04:50:26;13.10;;;10.00;;
14316;SDS011;7242;50.858;6.586;2023-12-04T04:53:28;11.17;;;8.70;;
14316;SDS011;7242;50.858;6.586;2023-12-04T04:56:29;14.93;;;10.50;;
14316;SDS011;7242;50.858;6.586;2023-12-04T04:59:30;13.20;;;9.87;;
14316;SDS011;7242;50.858;6.586;2023-12-04T05:02:32;13.53;;;9.23;;
14316;SDS011;7242;50.858;6.586;2023-12-04T05:05:34;12.40;;;9.40;;
14316;SDS011;7242;50.858;6.586;2023-12-04T05:08:35;14.20;;;10.03;;
14316;SDS011;7242;50.858;6.586;2023-12-04T05:11:36;12.60;;;9.33;;
14316;SDS011;7242;50.858;6.586;2023-12-04T05:14:37;12.60;;;9.53;;
14316;SDS011;7242;50.858;6.586;2023-12-04T05:17:38;14.03;;;10.20;;
14316;SDS011;7242;50.858;6.586;2023-12-04T05:20:40;11.87;;;9.50;;
14316;SDS011;7242;50.858;6.586;2023-12-04T05:23:41;13.33;;;9.43;;
14316;SDS011;7242;50.858;6.586;2023-12-04T05:26:43;11.47;;;9.13;;
14316;SDS011;7242;50.858;6.586;2023-12-04T05:29:44;13.27;;;8.97;;
14316;SDS011;7242;50.858;6.586;2023-12-04T05:32:45;13.10;;;9.03;;
14316;SDS011;7242;50.858;6.586;2023-12-04T05:35:47;11.87;;;8.90;;
14316;SDS011;7242;50.858;6.586;2023-12-04T05:38:48;11.27;;;8.30;;
14316;SDS011;7242;50.858;6.586;2023-12-04T05:41:49;11.17;;;8.50;;
14316;SDS011;7242;50.858;6.586;2023-12-04T05:44:51;11.73;;;9.03;;
14316;SDS011;7242;50.858;6.586;2023-12-04T05:47:55;12.00;;;8.70;;
14316;SDS011;7242;50.858;6.586;2023-12-04T05:50:56;11.00;;;8.27;;
14316;SDS011;7242;50.858;6.586;2023-12-04T05:53:57;11.07;;;8.97;;
14316;SDS011;7242;50.858;6.586;2023-12-04T05:56:58;12.47;;;8.93;;
14316;SDS011;7242;50.858;6.586;2023-12-04T05:59:59;12.97;;;8.73;;
14316;SDS011;7242;50.858;6.586;2023-12-04T06:03:00;12.67;;;9.33;;
14316;SDS011;7242;50.858;6.586;2023-12-04T06:06:01;11.97;;;9.50;;
14316;SDS011;7242;50.858;6.586;2023-12-04T06:09:03;13.63;;;9.10;;
14316;SDS011;7242;50.858;6.586;2023-12-04T06:12:04;13.00;;;9.23;;
14316;SDS011;7242;50.858;6.586;2023-12-04T06:15:08;11.70;;;9.07;;
14316;SDS011;7242;50.858;6.586;2023-12-04T06:18:10;11.13;;;9.03;;
14316;SDS011;7242;50.858;6.586;2023-12-04T06:21:10;12.37;;;9.17;;
14316;SDS011;7242;50.858;6.586;2023-12-04T06:24:12;11.80;;;8.60;;
14316;SDS011;7242;50.858;6.586;2023-12-04T06:27:16;12.07;;;9.17;;
14316;SDS011;7242;50.858;6.586;2023-12-04T06:30:21;11.63;;;8.40;;
14316;SDS011;7242;50.858;6.586;2023-12-04T06:33:22;11.70;;;8.47;;
14316;SDS011;7242;50.858;6.586;2023-12-04T06:36:23;10.43;;;7.90;;
14316;SDS011;7242;50.858;6.586;2023-12-04T06:39:25;10.57;;;7.87;;
14316;SDS011;7242;50.858;6.586;2023-12-04T06:42:32;9.77;;;7.77;;
14316;SDS011;7242;50.858;6.586;2023-12-04T06:45:33;12.47;;;8.70;;
14316;SDS011;7242;50.858;6.586;2023-12-04T06:48:34;11.63;;;8.80;;
14316;SDS011;7242;50.858;6.586;2023-12-04T06:51:36;11.07;;;8.57;;
14316;SDS011;7242;50.858;6.586;2023-12-04T06:54:36;11.50;;;8.87;;
14316;SDS011;7242;50.858;6.586;2023-12-04T06:57:37;10.13;;;8.73;;
14316;SDS011;7242;50.858;6.586;2023-12-04T07:00:39;12.80;;;9.40;;
14316;SDS011;7242;50.858;6.586;2023-12-04T07:03:39;17.53;;;11.60;;
14316;SDS011;7242;50.858;6.586;2023-12-04T07:06:41;14.50;;;10.87;;
14316;SDS011;7242;50.858;6.586;2023-12-04T07:09:43;15.10;;;10.67;;
14316;SDS011;7242;50.858;6.586;2023-12-04T07:12:44;13.50;;;10.23;;
14316;SDS011;7242;50.858;6.586;2023-12-04T07:15:45;13.50;;;10.67;;
14316;SDS011;7242;50.858;6.586;2023-12-04T07:18:46;15.23;;;11.03;;
14316;SDS011;7242;50.858;6.586;2023-12-04T07:21:48;14.40;;;11.20;;
14316;SDS011;7242;50.858;6.586;2023-12-04T07:24:49;14.73;;;11.07;;
14316;SDS011;7242;50.858;6.586;2023-12-04T07:27:51;15.67;;;11.60;;
14316;SDS011;7242;50.858;6.586;2023-12-04T07:30:54;12.60;;;10.83;;
14316;SDS011;7242;50.858;6.586;2023-12-04T07:33:55;14.03;;;11.30;;
14316;SDS011;7242;50.858;6.586;2023-12-04T07:36:57;14.90;;;11.30;;
14316;SDS011;7242;50.858;6.586;2023-12-04T07:39:58;16.43;;;11.60;;
14316;SDS011;7242;50.858;6.586;2023-12-04T07:42:59;15.77;;;11.67;;
14316;SDS011;7242;50.858;6.586;2023-12-04T07:46:00;15.83;;;12.10;;
14316;SDS011;7242;50.858;6.586;2023-12-04T07:49:02;14.23;;;11.67;;
14316;SDS011;7242;50.858;6.586;2023-12-04T07:52:04;16.27;;;11.93;;
14316;SDS011;7242;50.858;6.586;2023-12-04T07:55:05;15.03;;;11.17;;
14316;SDS011;7242;50.858;6.586;2023-12-04T07:58:07;14.17;;;11.10;;
14316;SDS011;7242;50.858;6.586;2023-12-04T08:01:08;17.00;;;11.80;;
14316;SDS011;7242;50.858;6.586;2023-12-04T08:04:10;14.50;;;11.40;;
14316;SDS011;7242;50.858;6.586;2023-12-04T08:07:11;13.70;;;10.20;;
14316;SDS011;7242;50.858;6.586;2023-12-04T08:10:12;13.57;;;10.43;;
14316;SDS011;7242;50.858;6.586;2023-12-04T08:13:14;13.73;;;10.40;;
14316;SDS011;7242;50.858;6.586;2023-12-04T08:16:16;13.03;;;10.07;;
14316;SDS011;7242;50.858;6.586;2023-12-04T08:19:17;12.80;;;9.93;;
14316;SDS011;7242;50.858;6.586;2023-12-04T08:22:18;12.13;;;10.00;;
14316;SDS011;7242;50.858;6.586;2023-12-04T08:25:20;12.57;;;10.03;;
14316;SDS011;7242;50.858;6.586;2023-12-04T08:28:21;14.70;;;10.33;;
14316;SDS011;7242;50.858;6.586;2023-12-04T08:31:22;14.10;;;10.77;;
14316;SDS011;7242;50.858;6.586;2023-12-04T08:34:23;13.90;;;10.37;;
14316;SDS011;7242;50.858;6.586;2023-12-04T08:37:25;11.43;;;9.40;;
14316;SDS011;7242;50.858;6.586;2023-12-04T08:40:26;12.93;;;9.77;;
14316;SDS011;7242;50.858;6.586;2023-12-04T08:43:27;12.03;;;9.57;;
14316;SDS011;7242;50.858;6.586;2023-12-04T08:46:29;11.07;;;8.97;;
14316;SDS011;7242;50.858;6.586;2023-12-04T08:49:30;11.67;;;9.27;;
14316;SDS011;7242;50.858;6.586;2023-12-04T08:52:31;11.80;;;9.33;;
14316;SDS011;7242;50.858;6.586;2023-12-04T08:55:32;13.27;;;9.00;;
14316;SDS011;7242;50.858;6.586;2023-12-04T08:58:33;12.57;;;9.40;;
14316;SDS011;7242;50.858;6.586;2023-12-04T09:01:34;12.13;;;8.97;;
14316;SDS011;7242;50.858;6.586;2023-12-04T09:04:35;11.67;;;9.30;;
14316;SDS011;7242;50.858;6.586;2023-12-04T09:07:36;11.83;;;9.37;;
14316;SDS011;7242;50.858;6.586;2023-12-04T09:10:37;12.33;;;9.40;;
14316;SDS011;7242;50.858;6.586;2023-12-04T09:13:39;12.60;;;9.30;;
14316;SDS011;7242;50.858;6.586;2023-12-04T09:16:40;11.83;;;9.47;;
14316;SDS011;7242;50.858;6.586;2023-12-04T09:19:41;11.23;;;9.47;;
14316;SDS011;7242;50.858;6.586;2023-12-04T09:22:43;12.37;;;9.47;;
14316;SDS011;7242;50.858;6.586;2023-12-04T09:25:44;11.50;;;9.40;;
14316;SDS011;7242;50.858;6.586;2023-12-04T09:28:45;11.23;;;9.43;;
14316;SDS011;7242;50.858;6.586;2023-12-04T09:31:47;12.67;;;9.73;;
14316;SDS011;7242;50.858;6.586;2023-12-04T09:34:48;13.57;;;9.70;;
14316;SDS011;7242;50.858;6.586;2023-12-04T09:37:49;14.47;;;9.77;;
14316;SDS011;7242;50.858;6.586;2023-12-04T09:40:51;13.90;;;10.20;;
14316;SDS011;7242;50.858;6.586;2023-12-04T09:43:53;13.67;;;9.03;;
14316;SDS011;7242;50.858;6.586;2023-12-04T09:46:55;13.90;;;9.60;;
14316;SDS011;7242;50.858;6.586;2023-12-04T09:49:57;12.23;;;9.20;;
14316;SDS011;7242;50.858;6.586;2023-12-04T09:52:58;12.13;;;9.77;;
14316;SDS011;7242;50.858;6.586;2023-12-04T09:56:02;12.37;;;9.73;;
14316;SDS011;7242;50.858;6.586;2023-12-04T09:59:06;10.60;;;8.83;;
14316;SDS011;7242;50.858;6.586;2023-12-04T10:02:07;11.77;;;8.80;;
14316;SDS011;7242;50.858;6.586;2023-12-04T10:05:09;13.37;;;9.20;;
14316;SDS011;7242;50.858;6.586;2023-12-04T10:08:10;11.37;;;9.23;;
14316;SDS011;7242;50.858;6.586;2023-12-04T10:11:14;10.97;;;8.87;;
14316;SDS011;7242;50.858;6.586;2023-12-04T10:14:16;10.87;;;8.40;;
14316;SDS011;7242;50.858;6.586;2023-12-04T10:17:18;11.67;;;8.70;;
14316;SDS011;7242;50.858;6.586;2023-12-04T10:20:20;13.10;;;8.80;;
14316;SDS011;7242;50.858;6.586;2023-12-04T10:23:22;11.77;;;8.73;;
14316;SDS011;7242;50.858;6.586;2023-12-04T10:26:36;12.03;;;8.40;;
14316;SDS011;7242;50.858;6.586;2023-12-04T10:32:43;9.37;;;7.97;;
14316;SDS011;7242;50.858;6.586;2023-12-04T10:35:44;10.97;;;8.57;;
14316;SDS011;7242;50.858;6.586;2023-12-04T10:38:47;11.13;;;8.87;;
14316;SDS011;7242;50.858;6.586;2023-12-04T10:42:02;10.27;;;8.53;;
14316;SDS011;7242;50.858;6.586;2023-12-04T10:45:04;11.23;;;8.77;;
14316;SDS011;7242;50.858;6.586;2023-12-04T10:48:06;11.63;;;8.70;;
14316;SDS011;7242;50.858;6.586;2023-12-04T10:51:08;10.27;;;8.67;;
14316;SDS011;7242;50.858;6.586;2023-12-04T10:54:09;11.90;;;9.17;;
14316;SDS011;7242;50.858;6.586;2023-12-04T10:57:12;11.53;;;8.70;;
14316;SDS011;7242;50.858;6.586;2023-12-04T11:00:17;10.67;;;8.33;;
14316;SDS011;7242;50.858;6.586;2023-12-04T11:03:19;10.33;;;8.03;;
14316;SDS011;7242;50.858;6.586;2023-12-04T11:06:23;10.50;;;8.47;;
14316;SDS011;7242;50.858;6.586;2023-12-04T11:09:25;11.47;;;8.87;;
14316;SDS011;7242;50.858;6.586;2023-12-04T11:12:27;11.03;;;8.33;;
14316;SDS011;7242;50.858;6.586;2023-12-04T11:15:31;11.57;;;7.90;;
14316;SDS011;7242;50.858;6.586;2023-12-04T11:18:38;10.87;;;8.70;;
14316;SDS011;7242;50.858;6.586;2023-12-04T11:21:45;12.27;;;9.17;;
14316;SDS011;7242;50.858;6.586;2023-12-04T11:24:49;13.67;;;8.97;;
14316;SDS011;7242;50.858;6.586;2023-12-04T11:27:52;11.57;;;8.77;;
14316;SDS011;7242;50.858;6.586;2023-12-04T11:30:54;11.07;;;8.60;;
14316;SDS011;7242;50.858;6.586;2023-12-04T11:34:01;12.40;;;8.83;;
14316;SDS011;7242;50.858;6.586;2023-12-04T11:37:02;11.13;;;8.77;;
14316;SDS011;7242;50.858;6.586;2023-12-04T11:40:04;12.53;;;9.13;;
14316;SDS011;7242;50.858;6.586;2023-12-04T11:43:24;12.03;;;8.73;;
14316;SDS011;7242;50.858;6.586;2023-12-04T11:46:26;12.33;;;9.90;;
14316;SDS011;7242;50.858;6.586;2023-12-04T11:49:28;11.93;;;8.70;;
14316;SDS011;7242;50.858;6.586;2023-12-04T11:52:33;12.97;;;9.43;;
14316;SDS011;7242;50.858;6.586;2023-12-04T11:55:35;12.57;;;9.87;;
14316;SDS011;7242;50.858;6.586;2023-12-04T11:58:43;12.63;;;9.53;;
14316;SDS011;7242;50.858;6.586;2023-12-04T12:01:44;13.80;;;9.87;;
14316;SDS011;7242;50.858;6.586;2023-12-04T12:04:50;13.20;;;9.63;;
14316;SDS011;7242;50.858;6.586;2023-12-04T12:07:51;13.30;;;9.80;;
14316;SDS011;7242;50.858;6.586;2023-12-04T12:10:53;12.10;;;9.90;;
14316;SDS011;7242;50.858;6.586;2023-12-04T12:13:54;12.73;;;9.93;;
14316;SDS011;7242;50.858;6.586;2023-12-04T12:16:55;12.80;;;9.80;;
14316;SDS011;7242;50.858;6.586;2023-12-04T12:19:56;14.37;;;10.60;;
14316;SDS011;7242;50.858;6.586;2023-12-04T12:22:57;13.80;;;10.20;;
14316;SDS011;7242;50.858;6.586;2023-12-04T12:25:59;14.73;;;10.87;;
14316;SDS011;7242;50.858;6.586;2023-12-04T12:29:01;13.03;;;10.23;;
14316;SDS011;7242;50.858;6.586;2023-12-04T12:32:02;13.60;;;10.40;;
14316;SDS011;7242;50.858;6.586;2023-12-04T12:35:03;12.73;;;9.83;;
14316;SDS011;7242;50.858;6.586;2023-12-04T12:38:04;13.70;;;10.70;;
14316;SDS011;7242;50.858;6.586;2023-12-04T12:41:06;12.53;;;10.27;;
14316;SDS011;7242;50.858;6.586;2023-12-04T12:44:12;14.40;;;10.57;;
14316;SDS011;7242;50.858;6.586;2023-12-04T12:47:16;15.13;;;10.60;;
14316;SDS011;7242;50.858;6.586;2023-12-04T12:50:17;13.43;;;10.90;;
14316;SDS011;7242;50.858;6.586;2023-12-04T12:53:18;11.90;;;9.93;;
14316;SDS011;7242;50.858;6.586;2023-12-04T12:56:19;13.47;;;10.67;;
14316;SDS011;7242;50.858;6.586;2023-12-04T12:59:22;14.40;;;10.73;;
14316;SDS011;7242;50.858;6.586;2023-12-04T13:02:23;12.43;;;9.60;;
14316;SDS011;7242;50.858;6.586;2023-12-04T13:05:24;13.33;;;9.90;;
14316;SDS011;7242;50.858;6.586;2023-12-04T13:08:25;12.47;;;9.57;;
14316;SDS011;7242;50.858;6.586;2023-12-04T13:11:26;11.87;;;9.70;;
14316;SDS011;7242;50.858;6.586;2023-12-04T13:14:29;12.67;;;9.90;;
14316;SDS011;7242;50.858;6.586;2023-12-04T13:17:30;12.27;;;10.10;;
14316;SDS011;7242;50.858;6.586;2023-12-04T13:20:32;12.97;;;10.27;;
14316;SDS011;7242;50.858;6.586;2023-12-04T13:23:34;13.00;;;9.57;;
14316;SDS011;7242;50.858;6.586;2023-12-04T13:26:35;11.23;;;9.13;;
14316;SDS011;7242;50.858;6.586;2023-12-04T13:29:36;11.77;;;9.57;;
14316;SDS011;7242;50.858;6.586;2023-12-04T13:32:38;12.47;;;9.47;;
14316;SDS011;7242;50.858;6.586;2023-12-04T13:35:39;11.13;;;8.90;;
14316;SDS011;7242;50.858;6.586;2023-12-04T13:38:40;10.50;;;8.80;;
14316;SDS011;7242;50.858;6.586;2023-12-04T13:41:42;11.30;;;9.77;;
14316;SDS011;7242;50.858;6.586;2023-12-04T13:45:04;11.77;;;9.07;;
14316;SDS011;7242;50.858;6.586;2023-12-04T13:48:09;11.60;;;9.77;;
14316;SDS011;7242;50.858;6.586;2023-12-04T13:51:11;11.27;;;8.73;;
14316;SDS011;7242;50.858;6.586;2023-12-04T13:54:12;13.07;;;9.90;;
14316;SDS011;7242;50.858;6.586;2023-12-04T13:57:21;12.47;;;9.87;;
14316;SDS011;7242;50.858;6.586;2023-12-04T14:00:42;12.10;;;9.60;;
14316;SDS011;7242;50.858;6.586;2023-12-04T14:03:44;12.40;;;9.97;;
14316;SDS011;7242;50.858;6.586;2023-12-04T14:06:45;12.03;;;9.70;;
14316;SDS011;7242;50.858;6.586;2023-12-04T14:09:46;10.90;;;9.37;;
14316;SDS011;7242;50.858;6.586;2023-12-04T14:12:47;10.97;;;8.90;;
14316;SDS011;7242;50.858;6.586;2023-12-04T14:15:49;10.77;;;9.33;;
14316;SDS011;7242;50.858;6.586;2023-12-04T14:18:50;10.93;;;9.17;;
14316;SDS011;7242;50.858;6.586;2023-12-04T14:21:51;10.57;;;8.87;;
14316;SDS011;7242;50.858;6.586;2023-12-04T14:24:52;10.13;;;8.90;;
14316;SDS011;7242;50.858;6.586;2023-12-04T14:27:53;11.00;;;8.90;;
14316;SDS011;7242;50.858;6.586;2023-12-04T14:30:54;10.10;;;8.50;;
14316;SDS011;7242;50.858;6.586;2023-12-04T14:33:56;11.77;;;8.83;;
14316;SDS011;7242;50.858;6.586;2023-12-04T14:36:57;10.67;;;8.87;;
14316;SDS011;7242;50.858;6.586;2023-12-04T14:39:59;12.63;;;9.00;;
14316;SDS011;7242;50.858;6.586;2023-12-04T14:43:00;10.80;;;8.67;;
14316;SDS011;7242;50.858;6.586;2023-12-04T14:46:01;10.87;;;8.97;;
14316;SDS011;7242;50.858;6.586;2023-12-04T14:49:03;10.53;;;8.77;;
14316;SDS011;7242;50.858;6.586;2023-12-04T14:52:04;12.73;;;9.17;;
14316;SDS011;7242;50.858;6.586;2023-12-04T14:55:07;11.63;;;9.77;;
14316;SDS011;7242;50.858;6.586;2023-12-04T14:58:08;10.33;;;9.10;;
14316;SDS011;7242;50.858;6.586;2023-12-04T15:01:32;11.00;;;9.27;;
14316;SDS011;7242;50.858;6.586;2023-12-04T15:04:52;11.43;;;9.57;;
14316;SDS011;7242;50.858;6.586;2023-12-04T15:08:13;12.83;;;9.73;;
14316;SDS011;7242;50.858;6.586;2023-12-04T15:11:33;12.00;;;10.17;;
14316;SDS011;7242;50.858;6.586;2023-12-04T15:14:43;12.73;;;10.07;;
14316;SDS011;7242;50.858;6.586;2023-12-04T15:18:13;12.57;;;9.80;;
14316;SDS011;7242;50.858;6.586;2023-12-04T15:21:36;11.33;;;9.50;;
14316;SDS011;7242;50.858;6.586;2023-12-04T15:24:37;11.13;;;9.03;;
14316;SDS011;7242;50.858;6.586;2023-12-04T15:27:38;11.57;;;9.37;;
14316;SDS011;7242;50.858;6.586;2023-12-04T15:30:40;11.40;;;10.00;;
14316;SDS011;7242;50.858;6.586;2023-12-04T15:33:47;11.80;;;9.80;;
14316;SDS011;7242;50.858;6.586;2023-12-04T15:36:48;12.13;;;9.70;;
14316;SDS011;7242;50.858;6.586;2023-12-04T15:39:49;10.80;;;9.00;;
14316;SDS011;7242;50.858;6.586;2023-12-04T15:42:50;10.70;;;9.47;;
14316;SDS011;7242;50.858;6.586;2023-12-04T15:45:51;11.67;;;9.87;;
14316;SDS011;7242;50.858;6.586;2023-12-04T15:48:53;11.90;;;9.50;;
14316;SDS011;7242;50.858;6.586;2023-12-04T15:51:53;11.93;;;10.17;;
14316;SDS011;7242;50.858;6.586;2023-12-04T15:54:55;12.83;;;9.63;;
14316;SDS011;7242;50.858;6.586;2023-12-04T15:57:56;11.97;;;9.27;;
14316;SDS011;7242;50.858;6.586;2023-12-04T16:00:58;12.60;;;10.13;;
14316;SDS011;7242;50.858;6.586;2023-12-04T16:03:59;10.77;;;9.30;;
14316;SDS011;7242;50.858;6.586;2023-12-04T16:07:00;12.33;;;9.40;;
14316;SDS011;7242;50.858;6.586;2023-12-04T16:10:01;12.20;;;9.57;;
14316;SDS011;7242;50.858;6.586;2023-12-04T16:13:02;11.77;;;9.13;;
14316;SDS011;7242;50.858;6.586;2023-12-04T16:16:05;11.33;;;9.73;;
14316;SDS011;7242;50.858;6.586;2023-12-04T16:19:07;10.83;;;9.73;;
14316;SDS011;7242;50.858;6.586;2023-12-04T16:22:08;12.80;;;9.30;;
14316;SDS011;7242;50.858;6.586;2023-12-04T16:25:09;9.90;;;8.90;;
14316;SDS011;7242;50.858;6.586;2023-12-04T16:28:10;12.07;;;9.10;;
14316;SDS011;7242;50.858;6.586;2023-12-04T16:31:13;10.17;;;9.07;;
14316;SDS011;7242;50.858;6.586;2023-12-04T16:34:14;10.73;;;9.07;;
14316;SDS011;7242;50.858;6.586;2023-12-04T16:37:15;10.37;;;8.93;;
14316;SDS011;7242;50.858;6.586;2023-12-04T16:40:16;10.70;;;9.40;;
14316;SDS011;7242;50.858;6.586;2023-12-04T16:43:17;12.53;;;9.70;;
14316;SDS011;7242;50.858;6.586;2023-12-04T16:46:18;12.43;;;10.70;;
14316;SDS011;7242;50.858;6.586;2023-12-04T16:49:19;12.33;;;10.27;;
14316;SDS011;7242;50.858;6.586;2023-12-04T16:52:20;11.43;;;9.80;;
14316;SDS011;7242;50.858;6.586;2023-12-04T16:55:21;12.20;;;10.90;;
14316;SDS011;7242;50.858;6.586;2023-12-04T16:58:23;13.40;;;11.43;;
14316;SDS011;7242;50.858;6.586;2023-12-04T17:01:24;14.20;;;11.33;;
14316;SDS011;7242;50.858;6.586;2023-12-04T17:04:25;13.47;;;11.10;;
14316;SDS011;7242;50.858;6.586;2023-12-04T17:07:26;13.00;;;11.63;;
14316;SDS011;7242;50.858;6.586;2023-12-04T17:10:27;14.97;;;12.33;;
14316;SDS011;7242;50.858;6.586;2023-12-04T17:13:29;13.97;;;12.37;;
14316;SDS011;7242;50.858;6.586;2023-12-04T17:16:30;16.77;;;12.60;;
14316;SDS011;7242;50.858;6.586;2023-12-04T17:19:32;15.60;;;12.40;;
14316;SDS011;7242;50.858;6.586;2023-12-04T17:22:35;13.93;;;11.90;;
14316;SDS011;7242;50.858;6.586;2023-12-04T17:25:37;15.33;;;12.00;;
14316;SDS011;7242;50.858;6.586;2023-12-04T17:28:37;14.90;;;12.63;;
14316;SDS011;7242;50.858;6.586;2023-12-04T17:31:39;15.33;;;11.97;;
14316;SDS011;7242;50.858;6.586;2023-12-04T17:34:43;14.93;;;12.93;;
14316;SDS011;7242;50.858;6.586;2023-12-04T17:37:44;15.57;;;13.20;;
14316;SDS011;7242;50.858;6.586;2023-12-04T17:40:45;17.07;;;13.30;;
14316;SDS011;7242;50.858;6.586;2023-12-04T17:43:46;17.27;;;13.50;;
14316;SDS011;7242;50.858;6.586;2023-12-04T17:46:47;17.30;;;12.80;;
14316;SDS011;7242;50.858;6.586;2023-12-04T17:49:48;14.70;;;13.10;;
14316;SDS011;7242;50.858;6.586;2023-12-04T17:52:49;14.63;;;13.00;;
14316;SDS011;7242;50.858;6.586;2023-12-04T17:55:51;14.93;;;12.43;;
14316;SDS011;7242;50.858;6.586;2023-12-04T17:58:52;16.33;;;13.23;;
14316;SDS011;7242;50.858;6.586;2023-12-04T18:01:53;16.67;;;13.50;;
14316;SDS011;7242;50.858;6.586;2023-12-04T18:04:55;14.90;;;12.67;;
14316;SDS011;7242;50.858;6.586;2023-12-04T18:07:56;16.33;;;13.77;;
14316;SDS011;7242;50.858;6.586;2023-12-04T18:10:57;17.20;;;13.80;;
14316;SDS011;7242;50.858;6.586;2023-12-04T18:13:59;15.67;;;13.87;;